createdAt,value
2019-05-02T00:00:43.927Z,27.13
2019-05-02T00:03:13.464Z,28.50
2019-05-02T00:05:43.423Z,28.80
2019-05-02T00:08:13.068Z,28.20
2019-05-02T00:10:43.140Z,28.43
2019-05-02T00:13:12.851Z,29.53
2019-05-02T00:15:42.599Z,29.67
2019-05-02T00:18:12.915Z,29.40
2019-05-02T00:20:42.737Z,28.43
2019-05-02T00:23:12.452Z,29.40
2019-05-02T00:25:42.156Z,28.97
2019-05-02T00:28:12.481Z,28.20
2019-05-02T00:30:43.172Z,26.50
2019-05-02T00:33:12.807Z,26.17
2019-05-02T00:35:46.218Z,25.80
2019-05-02T00:38:14.296Z,26.97
2019-05-02T00:40:46.431Z,26.30
2019-05-02T00:43:15.256Z,26.30
2019-05-02T00:45:44.878Z,27.93
2019-05-02T00:48:22.743Z,28.43
2019-05-02T00:50:52.457Z,26.93
2019-05-02T00:53:22.287Z,28.10
2019-05-02T00:55:51.820Z,25.83
2019-05-02T00:58:21.432Z,25.37
2019-05-02T01:00:53.155Z,26.47
2019-05-02T01:03:23.181Z,26.83
2019-05-02T01:05:52.976Z,24.20
2019-05-02T01:08:22.511Z,25.27
2019-05-02T01:10:56.721Z,26.30
2019-05-02T01:13:23.737Z,25.27
2019-05-02T01:15:53.396Z,27.60
2019-05-02T01:18:24.771Z,26.40
2019-05-02T01:20:58.204Z,26.50
2019-05-02T01:23:27.656Z,28.07
2019-05-02T01:25:57.043Z,26.40
2019-05-02T01:28:44.367Z,28.07
2019-05-02T01:31:18.487Z,26.80
2019-05-02T01:34:00.492Z,30.33
2019-05-02T01:36:46.769Z,27.83
2019-05-02T01:39:16.453Z,29.00
2019-05-02T01:41:46.060Z,28.17
2019-05-02T01:44:15.528Z,30.53
2019-05-02T01:46:45.163Z,27.70
2019-05-02T01:49:16.883Z,28.63
2019-05-02T01:51:47.409Z,28.13
2019-05-02T01:54:17.932Z,28.13
2019-05-02T01:56:47.519Z,29.07
2019-05-02T01:59:17.067Z,29.23
2019-05-02T02:01:46.960Z,31.03
2019-05-02T02:04:21.027Z,27.63
2019-05-02T02:06:48.044Z,27.17
2019-05-02T02:09:17.582Z,27.50
2019-05-02T02:11:47.387Z,26.67
2019-05-02T02:14:18.747Z,29.83
2019-05-02T02:16:48.339Z,27.23
2019-05-02T02:19:22.559Z,28.93
2019-05-02T02:22:12.183Z,28.80
2019-05-02T02:24:49.264Z,30.03
2019-05-02T02:27:19.969Z,27.63
2019-05-02T02:29:50.184Z,28.17
2019-05-02T02:32:26.396Z,30.23
2019-05-02T02:34:51.023Z,27.93
2019-05-02T02:37:20.501Z,29.87
2019-05-02T02:39:53.974Z,28.33
2019-05-02T02:42:25.194Z,26.47
2019-05-02T02:44:57.044Z,27.93
2019-05-02T02:47:26.668Z,27.83
2019-05-02T02:50:02.505Z,25.10
2019-05-02T02:52:28.001Z,25.80
2019-05-02T02:54:57.497Z,26.37
2019-05-02T02:57:28.525Z,25.27
2019-05-02T03:00:06.686Z,24.70
2019-05-02T03:02:30.084Z,22.93
2019-05-02T03:04:59.613Z,22.90
2019-05-02T03:07:29.169Z,21.53
2019-05-02T03:09:59.664Z,23.10
2019-05-02T03:12:36.309Z,22.83
2019-05-02T03:15:07.421Z,22.70
2019-05-02T03:17:37.056Z,24.90
2019-05-02T03:20:06.969Z,22.73
2019-05-02T03:22:42.042Z,23.93
2019-05-02T03:25:07.964Z,22.00
2019-05-02T03:27:40.271Z,23.87
2019-05-02T03:30:09.092Z,22.00
2019-05-02T03:32:38.544Z,22.83
2019-05-02T03:35:08.301Z,22.97
2019-05-02T03:37:37.760Z,24.80
2019-05-02T03:40:07.413Z,26.83
2019-05-02T03:42:44.412Z,25.13
2019-05-02T03:45:08.474Z,24.17
2019-05-02T03:47:44.014Z,26.23
2019-05-02T03:50:10.007Z,28.07
2019-05-02T03:52:43.540Z,29.23
2019-05-02T03:55:11.160Z,28.70
2019-05-02T03:57:42.143Z,25.60
2019-05-02T04:00:21.357Z,26.20
2019-05-02T04:02:44.396Z,25.77
2019-05-02T04:05:13.998Z,29.63
2019-05-02T04:07:43.711Z,26.10
2019-05-02T04:10:19.645Z,25.20
2019-05-02T04:12:53.187Z,25.47
2019-05-02T04:15:19.076Z,24.47
2019-05-02T04:17:48.965Z,23.73
2019-05-02T04:20:18.760Z,23.20
2019-05-02T04:22:50.866Z,22.43
2019-05-02T04:25:20.616Z,23.30
2019-05-02T04:27:50.792Z,24.47
2019-05-02T04:30:20.409Z,23.37
2019-05-02T04:32:55.767Z,24.73
2019-05-02T04:35:21.441Z,23.37
2019-05-02T04:37:51.082Z,22.90
2019-05-02T04:40:20.636Z,26.20
2019-05-02T04:42:51.242Z,25.53
2019-05-02T04:45:29.081Z,24.80
2019-05-02T04:47:58.431Z,23.97
2019-05-02T04:50:25.534Z,21.10
2019-05-02T04:52:55.648Z,21.33
2019-05-02T04:55:30.211Z,21.60
2019-05-02T04:57:58.834Z,21.77
2019-05-02T05:00:29.052Z,19.27
2019-05-02T05:02:58.829Z,18.50
2019-05-02T05:05:31.205Z,20.33
2019-05-02T05:07:59.767Z,20.30
2019-05-02T05:10:40.205Z,19.60
2019-05-02T05:13:01.164Z,21.00
2019-05-02T05:15:38.266Z,18.93
2019-05-02T05:18:04.437Z,20.20
2019-05-02T05:20:33.211Z,20.77
2019-05-02T05:23:02.745Z,19.07
2019-05-02T05:25:40.090Z,21.07
2019-05-02T05:28:09.714Z,20.13
2019-05-02T05:30:45.381Z,18.57
2019-05-02T05:33:11.233Z,20.13
2019-05-02T05:35:43.262Z,20.53
2019-05-02T05:38:12.147Z,19.73
2019-05-02T05:40:41.844Z,20.70
2019-05-02T05:43:15.616Z,20.00
2019-05-02T05:45:53.554Z,19.83
2019-05-02T05:48:13.998Z,19.73
2019-05-02T05:50:43.632Z,19.97
2019-05-02T05:53:17.078Z,21.13
2019-05-02T05:55:44.664Z,21.53
2019-05-02T05:58:15.828Z,21.57
2019-05-02T06:00:45.926Z,20.43
2019-05-02T06:03:17.953Z,19.47
2019-05-02T06:05:47.776Z,21.33
2019-05-02T06:08:18.448Z,22.03
2019-05-02T06:10:48.684Z,22.80
2019-05-02T06:13:18.162Z,21.70
2019-05-02T06:15:47.697Z,20.70
2019-05-02T06:18:17.155Z,21.60
2019-05-02T06:20:46.628Z,21.70
2019-05-02T06:23:16.399Z,20.20
2019-05-02T06:25:45.977Z,20.03
2019-05-02T06:28:15.532Z,21.03
2019-05-02T06:30:45.000Z,21.80
2019-05-02T06:33:14.716Z,20.67
2019-05-02T06:35:44.247Z,21.97
2019-05-02T06:38:13.886Z,21.90
2019-05-02T06:40:44.657Z,20.70
2019-05-02T06:43:14.825Z,20.90
2019-05-02T06:45:44.374Z,22.20
2019-05-02T06:48:17.763Z,23.20
2019-05-02T06:50:45.163Z,21.47
2019-05-02T06:53:14.749Z,21.93
2019-05-02T06:55:44.221Z,22.20
2019-05-02T06:58:14.032Z,20.70
2019-05-02T07:00:56.534Z,22.53
2019-05-02T07:03:15.259Z,22.80
2019-05-02T07:05:44.809Z,22.70
2019-05-02T07:08:14.539Z,21.40
2019-05-02T07:10:45.206Z,23.63
2019-05-02T07:13:15.329Z,23.20
2019-05-02T07:15:55.917Z,26.67
2019-05-02T07:18:27.179Z,22.33
2019-05-02T07:20:56.651Z,22.83
2019-05-02T07:23:26.548Z,20.37
2019-05-02T07:25:56.387Z,22.60
2019-05-02T07:28:26.117Z,22.40
2019-05-02T07:30:55.660Z,23.80
2019-05-02T07:33:25.145Z,23.40
2019-05-02T07:35:55.153Z,22.13
2019-05-02T07:38:27.557Z,21.80
2019-05-02T07:40:57.431Z,24.07
2019-05-02T07:43:27.962Z,22.97
2019-05-02T07:45:57.440Z,22.37
2019-05-02T07:48:26.955Z,22.73
2019-05-02T07:50:56.863Z,22.70
2019-05-02T07:53:26.820Z,23.60
2019-05-02T07:55:56.352Z,22.63
2019-05-02T07:58:26.011Z,23.77
2019-05-02T08:00:55.560Z,23.90
2019-05-02T08:03:29.404Z,22.67
2019-05-02T08:05:58.663Z,22.43
2019-05-02T08:08:29.924Z,21.30
2019-05-02T08:11:01.670Z,21.47
2019-05-02T08:13:31.520Z,21.40
2019-05-02T08:16:01.314Z,23.13
2019-05-02T08:18:31.769Z,22.60
2019-05-02T08:21:01.453Z,22.27
2019-05-02T08:23:31.322Z,22.57
2019-05-02T08:26:01.322Z,22.97
2019-05-02T08:28:51.950Z,23.57
2019-05-02T08:31:21.003Z,23.70
2019-05-02T08:33:50.695Z,25.83
2019-05-02T08:36:20.248Z,23.37
2019-05-02T08:38:53.521Z,24.43
2019-05-02T08:41:21.471Z,22.33
2019-05-02T08:43:51.208Z,25.40
2019-05-02T08:46:20.740Z,22.83
2019-05-02T08:48:50.813Z,25.43
2019-05-02T08:51:20.652Z,24.00
2019-05-02T08:53:51.998Z,24.80
2019-05-02T08:56:21.713Z,25.53
2019-05-02T08:58:52.485Z,24.57
2019-05-02T09:01:33.999Z,26.97
2019-05-02T09:03:56.784Z,27.03
2019-05-02T09:06:24.987Z,26.17
2019-05-02T09:08:54.456Z,26.93
2019-05-02T09:11:24.108Z,27.00
2019-05-02T09:13:53.639Z,25.90
2019-05-02T09:16:28.642Z,27.00
2019-05-02T09:18:54.643Z,27.73
2019-05-02T09:21:26.639Z,29.23
2019-05-02T09:23:55.640Z,27.40
2019-05-02T09:26:35.541Z,27.00
2019-05-02T09:29:01.769Z,28.07
2019-05-02T09:31:28.340Z,28.43
2019-05-02T09:33:57.988Z,26.53
2019-05-02T09:36:27.462Z,27.70
2019-05-02T09:38:57.657Z,26.87
2019-05-02T09:41:32.438Z,24.03
2019-05-02T09:43:58.805Z,26.37
2019-05-02T09:46:28.279Z,26.40
2019-05-02T09:49:04.340Z,26.30
2019-05-02T09:51:29.202Z,28.47
2019-05-02T09:54:02.622Z,29.70
2019-05-02T09:56:30.032Z,25.70
2019-05-02T09:59:04.801Z,24.70
2019-05-02T10:01:32.583Z,26.30
2019-05-02T10:04:02.482Z,26.67
2019-05-02T10:06:33.957Z,27.47
2019-05-02T10:09:05.044Z,26.67
2019-05-02T10:11:34.883Z,24.93
2019-05-02T10:14:05.163Z,25.30
2019-05-02T10:16:34.773Z,25.87
2019-05-02T10:19:09.270Z,27.60
2019-05-02T10:21:35.824Z,26.50
2019-05-02T10:24:05.424Z,26.20
2019-05-02T10:26:35.334Z,26.00
2019-05-02T10:29:05.144Z,25.70
2019-05-02T10:31:37.613Z,25.50
2019-05-02T10:34:08.555Z,26.17
2019-05-02T10:36:37.482Z,26.60
2019-05-02T10:39:07.665Z,26.57
2019-05-02T10:41:39.441Z,25.47
2019-05-02T10:44:08.659Z,24.50
2019-05-02T10:46:48.635Z,24.43
2019-05-02T10:49:19.926Z,25.23
2019-05-02T10:51:51.879Z,24.20
2019-05-02T10:54:23.132Z,25.73
2019-05-02T10:56:52.784Z,26.20
2019-05-02T10:59:22.332Z,25.13
2019-05-02T11:01:59.903Z,26.50
2019-05-02T11:04:32.342Z,25.80
2019-05-02T11:07:02.655Z,27.73
2019-05-02T11:09:32.266Z,26.60
2019-05-02T11:12:03.664Z,25.83
2019-05-02T11:14:52.927Z,25.90
2019-05-02T11:17:27.227Z,24.67
2019-05-02T11:19:58.648Z,25.10
2019-05-02T11:22:28.319Z,25.33
2019-05-02T11:24:57.876Z,24.90
2019-05-02T11:27:27.339Z,25.53
2019-05-02T11:29:57.283Z,26.50
2019-05-02T11:32:27.077Z,26.90
2019-05-02T11:34:57.012Z,25.30
2019-05-02T11:37:26.692Z,27.50
2019-05-02T11:40:00.191Z,26.80
2019-05-02T11:42:27.862Z,29.23
2019-05-02T11:44:57.452Z,25.33
2019-05-02T11:47:27.156Z,25.27
2019-05-02T11:49:56.696Z,28.40
2019-05-02T11:52:27.492Z,24.87
2019-05-02T11:54:57.719Z,25.77
2019-05-02T11:57:30.274Z,25.93
2019-05-02T11:59:59.450Z,26.93
2019-05-02T12:02:32.057Z,26.13
2019-05-02T12:05:02.009Z,27.60
2019-05-02T12:07:32.429Z,26.50
2019-05-02T12:10:04.577Z,25.50
2019-05-02T12:12:36.267Z,26.03
2019-05-02T12:15:06.115Z,28.50
2019-05-02T12:17:35.596Z,29.23
2019-05-02T12:20:06.299Z,26.00
2019-05-02T12:22:35.997Z,27.93
2019-05-02T12:25:06.143Z,26.87
2019-05-02T12:27:35.694Z,28.43
2019-05-02T12:30:06.396Z,26.77
2019-05-02T12:32:35.951Z,27.40
2019-05-02T12:35:06.193Z,26.40
2019-05-02T12:37:35.963Z,29.00
2019-05-02T12:40:06.864Z,28.73
2019-05-02T12:42:36.475Z,27.37
2019-05-02T12:45:07.719Z,28.80
2019-05-02T12:47:37.272Z,26.87
2019-05-02T12:50:07.991Z,27.80
2019-05-02T12:52:37.641Z,28.53
2019-05-02T12:55:08.016Z,29.17
2019-05-02T12:57:37.504Z,25.63
2019-05-02T13:00:08.424Z,27.43
2019-05-02T13:02:42.368Z,28.10
2019-05-02T13:05:13.183Z,27.30
2019-05-02T13:07:50.614Z,29.20
2019-05-02T13:10:16.048Z,26.60
2019-05-02T13:12:46.030Z,27.90
2019-05-02T13:15:15.732Z,26.03
2019-05-02T13:17:48.855Z,25.70
2019-05-02T13:20:19.044Z,28.07
2019-05-02T13:22:50.313Z,25.60
2019-05-02T13:25:22.502Z,27.20
2019-05-02T13:27:52.280Z,25.63
2019-05-02T13:30:46.246Z,26.67
2019-05-02T13:33:15.076Z,30.17
2019-05-02T13:35:46.348Z,26.10
2019-05-02T13:38:17.543Z,26.07
2019-05-02T13:40:47.167Z,26.87
2019-05-02T13:43:18.128Z,25.43
2019-05-02T13:45:59.100Z,27.27
2019-05-02T13:48:28.926Z,25.67
2019-05-02T13:50:58.932Z,28.90
2019-05-02T13:53:28.666Z,26.33
2019-05-02T13:56:12.956Z,26.10
2019-05-02T13:58:43.344Z,27.37
2019-05-02T14:01:13.688Z,26.07
2019-05-02T14:03:43.440Z,27.47
2019-05-02T14:06:13.157Z,28.97
2019-05-02T14:08:44.344Z,27.97
2019-05-02T14:11:32.095Z,26.47
2019-05-02T14:14:01.995Z,27.57
2019-05-02T14:16:32.060Z,26.27
2019-05-02T14:19:02.951Z,28.50
2019-05-02T14:21:32.767Z,27.57
2019-05-02T14:24:02.271Z,28.53
2019-05-02T14:26:33.186Z,27.80
2019-05-02T14:29:07.142Z,28.60
2019-05-02T14:31:35.584Z,30.10
2019-05-02T14:34:25.389Z,28.80
2019-05-02T14:36:59.149Z,26.87
2019-05-02T14:39:26.639Z,28.57
2019-05-02T14:41:56.331Z,29.00
2019-05-02T14:44:36.209Z,28.57
2019-05-02T14:46:57.863Z,28.70
2019-05-02T14:49:27.687Z,27.63
2019-05-02T14:52:01.576Z,28.37
2019-05-02T14:54:28.850Z,29.00
2019-05-02T14:57:06.183Z,29.07
2019-05-02T14:59:35.839Z,29.27
2019-05-02T15:02:07.788Z,27.73
2019-05-02T15:04:38.195Z,27.57
2019-05-02T15:07:08.986Z,28.50
2019-05-02T15:09:38.532Z,27.90
2019-05-02T15:12:14.294Z,27.97
2019-05-02T15:14:39.855Z,26.80
2019-05-02T15:17:09.510Z,29.97
2019-05-02T15:19:39.205Z,29.97
2019-05-02T15:22:08.733Z,33.40
2019-05-02T15:24:38.384Z,35.30
2019-05-02T15:27:16.635Z,35.00
2019-05-02T15:29:39.435Z,37.10
2019-05-02T15:32:12.528Z,37.87
2019-05-02T15:34:56.101Z,42.00
2019-05-02T15:37:26.553Z,41.17
2019-05-02T15:42:27.515Z,42.07
2019-05-02T15:45:01.775Z,43.03
2019-05-02T15:47:29.063Z,37.67
2019-05-02T15:49:58.870Z,38.50
2019-05-02T15:52:30.148Z,42.50
2019-05-02T15:55:02.109Z,40.17
2019-05-02T15:57:37.672Z,44.50
2019-05-02T16:00:04.140Z,43.30
2019-05-02T16:02:33.748Z,44.80
2019-05-02T16:05:05.508Z,47.20
2019-05-02T16:07:38.166Z,47.13
2019-05-02T16:10:08.968Z,44.63
2019-05-02T16:12:39.149Z,47.37
2019-05-02T16:15:18.207Z,48.97
2019-05-02T16:17:42.300Z,46.70
2019-05-02T16:20:18.000Z,45.70
2019-05-02T16:22:49.875Z,45.23
2019-05-02T16:25:20.042Z,45.33
2019-05-02T16:27:50.396Z,43.97
2019-05-02T16:30:22.611Z,43.90
2019-05-02T16:33:02.484Z,43.93
2019-05-02T16:35:33.214Z,41.83
2019-05-02T16:38:03.082Z,44.40
2019-05-02T16:40:34.798Z,42.40
2019-05-02T16:43:04.130Z,42.00
2019-05-02T16:45:33.773Z,44.77
2019-05-02T16:48:03.489Z,43.30
2019-05-02T16:50:36.770Z,43.00
2019-05-02T16:53:04.295Z,45.00
2019-05-02T16:55:34.096Z,43.53
2019-05-02T16:58:07.117Z,47.03
2019-05-02T17:00:36.880Z,46.57
2019-05-02T17:03:06.463Z,44.30
2019-05-02T17:05:39.233Z,45.37
2019-05-02T17:08:18.597Z,48.53
2019-05-02T17:10:47.420Z,47.83
2019-05-02T17:13:16.191Z,48.47
2019-05-02T17:15:45.673Z,49.40
2019-05-02T17:18:18.012Z,51.40
2019-05-02T17:20:46.936Z,48.93
2019-05-02T17:23:17.669Z,55.47
2019-05-02T17:25:47.295Z,54.03
2019-05-02T17:28:16.827Z,50.40
2019-05-02T17:30:46.524Z,51.30
2019-05-02T17:33:16.547Z,51.20
2019-05-02T17:35:51.358Z,49.77
2019-05-02T17:38:19.110Z,48.03
2019-05-02T17:40:51.749Z,50.30
2019-05-02T17:43:22.729Z,51.97
2019-05-02T17:45:52.534Z,48.93
2019-05-02T17:48:22.183Z,47.37
2019-05-02T17:50:55.998Z,51.07
2019-05-02T17:53:24.823Z,48.17
2019-05-02T17:55:54.483Z,46.10
2019-05-02T17:58:24.624Z,46.90
2019-05-02T18:00:57.254Z,51.27
2019-05-02T18:03:30.865Z,48.40
2019-05-02T18:05:59.295Z,46.23
2019-05-02T18:08:28.824Z,43.50
2019-05-02T18:11:00.672Z,46.67
2019-05-02T18:13:33.968Z,42.77
2019-05-02T18:16:02.790Z,39.80
2019-05-02T18:18:32.892Z,40.10
2019-05-02T18:21:02.643Z,38.10
2019-05-02T18:23:32.370Z,41.10
2019-05-02T18:26:05.035Z,39.80
2019-05-02T18:28:45.828Z,44.47
2019-05-02T18:31:05.950Z,40.60
2019-05-02T18:33:40.954Z,38.97
2019-05-02T18:36:07.652Z,43.10
2019-05-02T18:38:37.395Z,42.07
2019-05-02T18:41:07.975Z,41.57
2019-05-02T18:43:43.578Z,39.17
2019-05-02T18:46:09.123Z,37.87
2019-05-02T18:48:42.066Z,36.53
2019-05-02T18:51:10.127Z,39.10
2019-05-02T18:53:39.996Z,34.93
2019-05-02T18:56:09.612Z,34.67
2019-05-02T18:58:41.302Z,34.30
2019-05-02T19:01:14.063Z,32.50
2019-05-02T19:03:46.987Z,34.77
2019-05-02T19:06:14.484Z,36.10
2019-05-02T19:08:49.838Z,32.77
2019-05-02T19:11:18.745Z,35.80
2019-05-02T19:13:48.660Z,35.50
2019-05-02T19:16:19.415Z,34.77
2019-05-02T19:18:54.482Z,34.80
2019-05-02T19:21:21.717Z,35.23
2019-05-02T19:23:51.882Z,35.93
2019-05-02T19:26:22.090Z,35.90
2019-05-02T19:28:56.791Z,35.50
2019-05-02T19:31:28.068Z,36.00
2019-05-02T19:33:57.835Z,38.80
2019-05-02T19:36:27.870Z,35.17
2019-05-02T19:39:05.718Z,36.20
2019-05-02T19:41:28.824Z,37.33
2019-05-02T19:43:58.671Z,34.90
2019-05-02T19:46:34.792Z,35.80
2019-05-02T19:49:01.725Z,35.40
2019-05-02T19:51:43.534Z,34.77
2019-05-02T19:54:13.262Z,34.20
2019-05-02T19:56:47.112Z,30.60
2019-05-02T19:59:16.799Z,31.17
2019-05-02T20:01:45.576Z,29.67
2019-05-02T20:04:15.514Z,30.63
2019-05-02T20:06:45.227Z,29.67
2019-05-02T20:09:15.091Z,28.30
2019-05-02T20:11:44.571Z,28.93
2019-05-02T20:14:14.176Z,29.20
2019-05-02T20:16:48.938Z,29.13
2019-05-02T20:19:23.147Z,32.23
2019-05-02T20:21:57.073Z,38.33
2019-05-02T20:24:27.173Z,35.13
2019-05-02T20:26:56.712Z,33.60
2019-05-02T20:29:26.563Z,25.47
2019-05-02T20:31:56.044Z,21.80
2019-05-02T20:34:25.772Z,17.67
2019-05-02T20:36:55.431Z,16.57
2019-05-02T20:39:25.979Z,15.53
2019-05-02T20:41:55.545Z,14.77
2019-05-02T20:44:25.537Z,15.67
2019-05-02T20:46:55.200Z,16.07
2019-05-02T20:49:24.678Z,14.77
2019-05-02T20:51:54.444Z,15.57
2019-05-02T20:54:24.055Z,16.23
2019-05-02T20:56:53.520Z,14.83
2019-05-02T20:59:23.166Z,14.40
2019-05-02T21:01:52.700Z,13.37
2019-05-02T21:04:23.006Z,13.10
2019-05-02T21:07:03.437Z,12.33
2019-05-02T21:09:34.810Z,10.37
2019-05-02T21:12:06.278Z,10.77
2019-05-02T21:14:35.799Z,10.90
2019-05-02T21:17:05.594Z,11.13
2019-05-02T21:19:35.052Z,10.80
2019-05-02T21:22:07.689Z,10.70
2019-05-02T21:24:37.333Z,9.33
2019-05-02T21:27:07.135Z,7.57
2019-05-02T21:29:36.739Z,8.30
2019-05-02T21:32:06.335Z,8.17
2019-05-02T21:34:35.867Z,7.87
2019-05-02T21:37:05.324Z,8.07
2019-05-02T21:39:35.067Z,6.20
2019-05-02T21:42:04.510Z,5.70
2019-05-02T21:44:33.979Z,5.13
2019-05-02T21:47:05.745Z,5.20
2019-05-02T21:49:52.484Z,4.70
2019-05-02T21:52:23.644Z,4.83
2019-05-02T21:54:54.804Z,5.80
2019-05-02T21:57:24.267Z,4.43
2019-05-02T21:59:53.803Z,5.03
2019-05-02T22:02:23.255Z,6.60
2019-05-02T22:04:52.950Z,4.77
2019-05-02T22:07:22.559Z,5.37
2019-05-02T22:09:52.484Z,4.83
2019-05-02T22:12:22.598Z,4.70
2019-05-02T22:14:52.924Z,5.10
2019-05-02T22:17:22.921Z,5.57
2019-05-02T22:19:52.567Z,5.80
2019-05-02T22:22:22.860Z,5.23
2019-05-02T22:24:52.914Z,5.07
2019-05-02T22:27:22.854Z,4.30
2019-05-02T22:29:54.668Z,4.70
2019-05-02T22:32:24.115Z,5.30
2019-05-02T22:34:55.896Z,6.37
2019-05-02T22:37:25.785Z,5.47
2019-05-02T22:40:03.632Z,5.67
2019-05-02T22:42:32.373Z,5.93
2019-05-02T22:45:04.489Z,5.43
2019-05-02T22:47:33.286Z,5.40
2019-05-02T22:50:03.213Z,5.10
2019-05-02T22:52:32.656Z,4.90
2019-05-02T22:55:02.989Z,4.87
2019-05-02T22:57:32.753Z,5.27
2019-05-02T23:00:02.276Z,5.30
2019-05-02T23:02:32.471Z,5.23
2019-05-02T23:05:02.175Z,4.83
2019-05-02T23:07:31.738Z,5.90
2019-05-02T23:10:02.129Z,4.83
2019-05-02T23:12:31.996Z,5.73
2019-05-02T23:15:02.082Z,5.70
2019-05-02T23:17:32.182Z,6.40
2019-05-02T23:20:02.194Z,6.77
2019-05-02T23:22:32.318Z,6.40
2019-05-02T23:25:11.655Z,6.50
2019-05-02T23:27:46.075Z,5.50
2019-05-02T23:30:17.967Z,6.27
2019-05-02T23:32:47.541Z,5.60
2019-05-02T23:35:17.224Z,6.17
2019-05-02T23:37:46.740Z,5.67
2019-05-02T23:40:16.812Z,6.83
2019-05-02T23:42:46.408Z,6.83
2019-05-02T23:45:16.187Z,6.93
2019-05-02T23:47:45.977Z,6.67
2019-05-02T23:50:15.693Z,6.27
2019-05-02T23:52:45.324Z,7.20
2019-05-02T23:55:15.007Z,7.67
2019-05-02T23:57:44.765Z,6.77
